Time;durP1;ratioP1;P1;durP2;ratioP2;P2;SDS_P1;SDS_P2;PMS_P1;PMS_P2;Temp;Humidity;BMP_temperature;BMP_pressure;BME280_temperature;BME280_humidity;BME280_pressure;Samples;Min_cycle;Max_cycle;Signal;HPM_P1;HPM_P2
2023/06/29 00:11:46;;;;;;;5.72;4.07;;;15.80;99.90;;;;;;5399621;23;20103;-77
2023/06/29 00:24:11;;;;;;;4.78;3.25;;;15.70;99.90;;;;;;5331437;23;20255;-78
2023/06/29 00:30:00;;;;;;;4.90;3.45;;;15.60;99.90;;;;;;4923876;29;20044;-78
2023/06/29 00:32:29;;;;;;;5.35;3.40;;;15.60;99.90;;;;;;4911089;29;20402;-77
2023/06/29 00:34:56;;;;;;;4.00;3.10;;;15.60;99.90;;;;;;4919701;29;20324;-78
2023/06/29 00:37:29;;;;;;;4.90;3.00;;;15.80;99.90;;;;;;4910946;29;20044;-77
2023/06/29 00:40:13;;;;;;;5.57;3.33;;;15.60;99.90;;;;;;4915164;29;20116;-77
2023/06/29 00:42:42;;;;;;;5.07;3.20;;;15.60;99.90;;;;;;4915321;29;20516;-77
2023/06/29 00:45:10;;;;;;;4.38;3.08;;;15.60;99.90;;;;;;4915703;29;20079;-77
2023/06/29 00:47:37;;;;;;;4.20;3.17;;;15.50;99.90;;;;;;4913504;29;20159;-76
2023/06/29 00:50:17;;;;;;;4.47;3.42;;;15.60;99.90;;;;;;4915489;29;20052;-78
2023/06/29 00:57:21;;;;;;;4.45;3.33;;;15.60;99.90;;;;;;4912986;29;20036;-77
2023/06/29 01:00:42;;;;;;;4.60;3.28;;;15.80;99.90;;;;;;4857676;29;20596;-76
2023/06/29 01:03:11;;;;;;;5.13;3.65;;;16.00;99.90;;;;;;4890199;29;20055;-77
2023/06/29 01:11:35;;;;;;;4.72;3.50;;;15.90;99.90;;;;;;5376813;23;20048;-78
2023/06/29 01:14:08;;;;;;;4.63;3.28;;;15.80;99.90;;;;;;4916179;29;20078;-76
2023/06/29 01:20:49;;;;;;;4.07;3.00;;;16.10;99.90;;;;;;5050800;23;20143;-77
2023/06/29 01:26:00;;;;;;;5.68;3.28;;;16.10;99.90;;;;;;5011689;23;20496;-77
2023/06/29 01:28:34;;;;;;;8.30;3.50;;;15.90;99.90;;;;;;4912618;29;20047;-77
2023/06/29 01:35:56;;;;;;;5.93;3.72;;;16.30;99.90;;;;;;4919583;29;20039;-78
2023/06/29 01:38:28;;;;;;;5.90;3.40;;;16.10;99.90;;;;;;4907583;29;20033;-77
2023/06/29 01:41:03;;;;;;;5.65;3.50;;;15.90;99.90;;;;;;4911001;29;20053;-78
2023/06/29 01:43:40;;;;;;;6.07;3.40;;;15.90;99.90;;;;;;4914031;29;20041;-78
2023/06/29 01:46:49;;;;;;;5.47;3.60;;;15.90;99.90;;;;;;4872717;29;20052;-78
2023/06/29 01:53:41;;;;;;;5.70;3.83;;;16.00;99.90;;;;;;4912633;29;20051;-79
2023/06/29 01:56:50;;;;;;;6.65;4.07;;;15.80;99.90;;;;;;4902644;29;20063;-77
2023/06/29 02:03:01;;;;;;;5.05;4.00;;;15.70;99.90;;;;;;5683511;23;20048;-77
2023/06/29 02:05:28;;;;;;;5.75;4.07;;;15.90;99.90;;;;;;4908253;29;20096;-77
2023/06/29 02:11:28;;;;;;;9.48;4.15;;;15.60;99.90;;;;;;4972108;23;20052;-76
2023/06/29 02:13:56;;;;;;;8.65;4.32;;;15.60;99.90;;;;;;4884550;29;20049;-77
2023/06/29 02:17:31;;;;;;;7.90;4.40;;;15.60;99.90;;;;;;4893587;29;20124;-76
2023/06/29 02:23:55;;;;;;;10.55;4.60;;;15.60;99.90;;;;;;5355944;23;20044;-77
2023/06/29 02:26:25;;;;;;;6.60;4.22;;;15.80;99.90;;;;;;4900583;29;20055;-77
2023/06/29 02:29:03;;;;;;;6.32;4.25;;;15.60;99.90;;;;;;4913654;29;20446;-78
2023/06/29 02:32:12;;;;;;;6.28;4.47;;;15.70;99.90;;;;;;4923621;29;20079;-77
2023/06/29 02:34:40;;;;;;;5.43;3.75;;;15.60;99.90;;;;;;4904782;29;20056;-77
2023/06/29 02:37:20;;;;;;;6.72;4.40;;;15.80;99.90;;;;;;4923625;29;20504;-77
2023/06/29 02:40:52;;;;;;;6.35;4.28;;;15.80;99.90;;;;;;4875834;29;20095;-78
2023/06/29 02:43:19;;;;;;;7.00;4.57;;;15.80;99.90;;;;;;4881598;29;20072;-79
2023/06/29 02:45:47;;;;;;;6.95;3.85;;;15.80;99.90;;;;;;4891959;29;20116;-78
2023/06/29 02:48:14;;;;;;;5.90;3.78;;;15.70;99.90;;;;;;4881528;29;20612;-78
2023/06/29 02:50:42;;;;;;;6.35;4.45;;;15.80;99.90;;;;;;4896572;29;20044;-78
2023/06/29 02:53:11;;;;;;;4.78;3.40;;;16.00;99.90;;;;;;4877549;29;20053;-77
2023/06/29 02:55:39;;;;;;;6.07;4.00;;;15.90;99.90;;;;;;4862659;29;20073;-77
2023/06/29 02:58:16;;;;;;;6.32;3.60;;;16.20;99.90;;;;;;4861973;29;20696;-77
2023/06/29 03:01:32;;;;;;;10.10;4.20;;;16.10;99.90;;;;;;4911177;23;20063;-77
2023/06/29 03:03:59;;;;;;;5.88;3.90;;;15.90;99.90;;;;;;4899703;29;20048;-78
2023/06/29 03:06:28;;;;;;;6.57;3.97;;;16.10;99.90;;;;;;4929015;29;20400;-77
2023/06/29 03:08:55;;;;;;;7.93;4.45;;;16.60;99.90;;;;;;4913214;29;20452;-78
2023/06/29 03:11:23;;;;;;;7.25;4.75;;;16.70;99.90;;;;;;4917101;29;20512;-78
2023/06/29 03:14:04;;;;;;;7.45;4.38;;;16.80;99.90;;;;;;4920501;29;20048;-78
2023/06/29 03:17:13;;;;;;;8.95;3.95;;;17.00;99.90;;;;;;4887511;29;20083;-78
2023/06/29 03:22:45;;;;;;;5.78;4.18;;;17.00;99.90;;;;;;5032942;23;20040;-78
2023/06/29 03:25:50;;;;;;;5.95;4.18;;;17.10;99.90;;;;;;4915737;29;20123;-78
2023/06/29 03:28:18;;;;;;;7.88;4.05;;;17.10;99.90;;;;;;4930442;29;20067;-80
2023/06/29 03:33:58;;;;;;;6.13;3.83;;;17.10;99.90;;;;;;4933580;29;20062;-80
2023/06/29 03:36:26;;;;;;;6.18;4.43;;;17.00;99.90;;;;;;4911008;29;20052;-77
2023/06/29 03:38:53;;;;;;;8.65;4.80;;;17.10;99.90;;;;;;4909270;29;20056;-77
2023/06/29 03:41:28;;;;;;;10.25;4.05;;;17.20;99.90;;;;;;4929409;29;20091;-78
2023/06/29 03:44:28;;;;;;;6.72;3.92;;;17.20;99.90;;;;;;5254247;23;20083;-77
2023/06/29 03:46:55;;;;;;;6.05;4.25;;;17.20;99.90;;;;;;4905269;29;20056;-76
2023/06/29 03:49:22;;;;;;;6.38;4.15;;;17.30;99.90;;;;;;4914712;29;20071;-77
2023/06/29 03:52:08;;;;;;;5.50;3.90;;;17.10;99.90;;;;;;4917611;29;20047;-77
2023/06/29 03:55:18;;;;;;;6.20;3.75;;;17.30;99.90;;;;;;4957276;23;20059;-77
2023/06/29 03:57:54;;;;;;;5.28;3.72;;;17.20;99.90;;;;;;4908573;29;20449;-77
2023/06/29 04:00:29;;;;;;;6.35;3.80;;;16.80;99.90;;;;;;4902619;29;20063;-79
2023/06/29 04:02:56;;;;;;;8.10;4.00;;;16.80;99.90;;;;;;4912068;29;20140;-77
2023/06/29 04:05:23;;;;;;;5.80;4.00;;;17.20;99.90;;;;;;4909564;29;20042;-77
2023/06/29 04:07:57;;;;;;;4.75;3.42;;;16.70;99.90;;;;;;4914663;29;20045;-77
2023/06/29 04:18:18;;;;;;;5.68;3.88;;;16.80;99.90;;;;;;4929476;26;19919;-77
2023/06/29 04:20:46;;;;;;;8.32;4.47;;;16.50;99.90;;;;;;4918769;29;20063;-78
2023/06/29 04:26:21;;;;;;;7.25;4.60;;;16.70;99.90;;;;;;5046072;23;20052;-77
2023/06/29 04:31:39;;;;;;;6.82;4.78;;;16.50;99.90;;;;;;4901033;29;20131;-78
2023/06/29 04:37:40;;;;;;;6.05;3.90;;;16.70;99.90;;;;;;4892440;29;20048;-77
2023/06/29 04:42:10;;;;;;;;;;;;;;;;;;;;;
2023/06/29 04:48:51;;;;;;;6.10;4.30;;;17.20;99.90;;;;;;4836684;29;20060;-77
2023/06/29 04:55:55;;;;;;;7.38;4.57;;;17.40;99.90;;;;;;4808671;29;20050;-76
2023/06/29 04:58:28;;;;;;;6.53;4.25;;;17.40;99.90;;;;;;4791571;29;20560;-77
2023/06/29 05:01:32;;;;;;;10.80;4.68;;;17.50;99.90;;;;;;4766034;29;20054;-77
2023/06/29 05:07:03;;;;;;;6.50;4.60;;;17.90;99.90;;;;;;5502075;23;20044;-78
2023/06/29 05:09:52;;;;;;;7.57;4.22;;;18.00;99.90;;;;;;4903387;29;20561;-79
2023/06/29 05:13:08;;;;;;;7.28;4.43;;;18.00;99.90;;;;;;4912845;29;20043;-78
2023/06/29 05:19:50;;;;;;;5.95;4.20;;;17.70;99.90;;;;;;4928249;29;20087;-77
2023/06/29 05:23:06;;;;;;;;;;;;;;;;;;;;;
2023/06/29 05:26:17;;;;;;;7.90;4.38;;;17.60;99.90;;;;;;4908610;29;20502;-76
2023/06/29 05:28:45;;;;;;;7.55;4.75;;;17.30;99.90;;;;;;4916143;29;20052;-76
2023/06/29 05:31:31;;;;;;;7.50;4.63;;;17.20;99.90;;;;;;4905433;29;20433;-76
2023/06/29 05:33:59;;;;;;;7.30;4.53;;;17.20;99.90;;;;;;4914672;29;20047;-78
2023/06/29 05:36:29;;;;;;;6.45;4.13;;;17.10;99.90;;;;;;4912314;29;20083;-74
2023/06/29 05:38:56;;;;;;;;;;;17.10;99.90;;;;;;4899329;29;20458;-79
2023/06/29 05:41:24;;;;;;;7.38;4.50;;;17.10;99.90;;;;;;4918088;29;19958;-76
2023/06/29 05:44:31;;;;;;;7.45;4.97;;;17.10;99.90;;;;;;4919783;29;20111;-78
2023/06/29 05:49:57;;;;;;;6.65;4.45;;;17.30;99.90;;;;;;5092472;23;20044;-78
2023/06/29 05:52:43;;;;;;;6.47;4.80;;;17.30;99.90;;;;;;5162655;23;20048;-77
2023/06/29 05:56:14;;;;;;;7.65;5.00;;;17.30;99.90;;;;;;4870158;29;20052;-79
2023/06/29 06:20:04;;;;;;;7.25;4.28;;;17.30;99.90;;;;;;5094060;23;20052;-80
2023/06/29 06:26:28;;;;;;;6.03;4.13;;;17.60;99.90;;;;;;5185852;23;19919;-78
2023/06/29 06:29:47;;;;;;;6.18;4.18;;;17.80;99.90;;;;;;5671993;23;20127;-76
2023/06/29 06:42:01;;;;;;;7.00;4.82;;;18.80;99.90;;;;;;5144705;23;20107;-81
2023/06/29 06:44:32;;;;;;;7.77;4.47;;;18.10;99.90;;;;;;4896700;29;20072;-79
2023/06/29 06:47:04;;;;;;;8.35;4.13;;;18.50;99.90;;;;;;4927146;29;20291;-78
2023/06/29 06:49:33;;;;;;;8.88;4.80;;;18.60;99.90;;;;;;4910963;29;20096;-78
2023/06/29 07:00:12;;;;;;;9.73;4.57;;;18.00;99.90;;;;;;4898231;29;20117;-78
2023/06/29 07:03:25;;;;;;;5.97;3.65;;;18.10;99.90;;;;;;4910970;29;20040;-78
2023/06/29 07:09:48;;;;;;;9.07;4.32;;;18.20;99.90;;;;;;5709243;23;20103;-78
2023/06/29 07:13:24;;;;;;;;;;;;;;;;;;;;;
2023/06/29 07:31:02;;;;;;;17.73;8.32;;;19.90;99.90;;;;;;5002977;23;20040;-80
2023/06/29 09:31:28;;;;;;;7.55;2.97;;;21.80;96.50;;;;;;5433733;23;20041;-80
2023/06/29 09:56:23;;;;;;;;;;;;;;;;;;;;;
2023/06/29 10:02:55;;;;;;;41.10;17.95;;;22.60;93.60;;;;;;4833304;29;20084;-83
2023/06/29 10:09:59;;;;;;;66.20;44.35;;;22.40;93.60;;;;;;5539435;23;20038;-81
2023/06/29 10:12:28;;;;;;;89.82;52.85;;;22.50;93.70;;;;;;4868176;29;20049;-82
2023/06/29 10:24:59;;;;;;;14.07;3.53;;;22.70;92.60;;;;;;5799189;23;20120;-83
2023/06/29 10:27:29;;;;;;;8.38;4.03;;;22.70;92.80;;;;;;5001464;23;20028;-82
2023/06/29 10:31:05;;;;;;;6.05;3.47;;;22.50;93.20;;;;;;4862737;29;20371;-78
2023/06/29 10:48:02;;;;;;;12.80;5.90;;;24.00;90.90;;;;;;5843967;23;20069;-80
2023/06/29 10:50:46;;;;;;;10.18;3.97;;;24.20;90.40;;;;;;4901857;29;20119;-80
2023/06/29 11:22:48;;;;;;;34.35;23.13;;;25.30;88.50;;;;;;5103226;23;20480;-81
2023/06/29 11:31:19;;;;;;;33.92;26.15;;;25.40;83.40;;;;;;5977057;23;20071;-78
2023/06/29 11:35:38;;;;;;;;;;;;;;;;;;;;;
2023/06/29 11:49:34;;;;;;;20.42;12.25;;;26.70;82.20;;;;;;4966672;23;20053;-80
2023/06/29 12:07:18;;;;;;;8.10;3.65;;;26.90;82.20;;;;;;4986766;23;20125;-81
2023/06/29 12:14:05;;;;;;;6.65;3.78;;;27.50;79.70;;;;;;4956121;23;20049;-80
2023/06/29 12:32:56;;;;;;;17.00;11.18;;;26.60;78.50;;;;;;4864836;29;20049;-80
2023/06/29 12:42:24;;;;;;;10.30;4.82;;;26.40;76.90;;;;;;4991839;24;20045;-86
2023/06/29 13:18:27;;;;;;;9.25;4.05;;;27.10;77.00;;;;;;4892706;29;20081;-81
2023/06/29 13:21:39;;;;;;;5.95;3.55;;;26.50;78.90;;;;;;4862603;29;20060;-84
2023/06/29 13:28:56;;;;;;;6.82;3.03;;;27.80;75.10;;;;;;5293945;23;20109;-80
2023/06/29 13:43:29;;;;;;;5.28;2.92;;;27.80;71.30;;;;;;5144008;23;20075;-78
2023/06/29 13:46:24;;;;;;;6.20;3.03;;;28.50;70.70;;;;;;4842882;29;20556;-80
2023/06/29 13:48:52;;;;;;;4.90;3.40;;;29.20;70.80;;;;;;5135594;23;20071;-79
2023/06/29 13:51:20;;;;;;;5.95;3.20;;;29.50;69.70;;;;;;4884539;29;20101;-80
2023/06/29 14:00:56;;;;;;;4.53;2.95;;;29.90;70.10;;;;;;4871471;29;20069;-85
2023/06/29 14:37:28;;;;;;;6.40;2.78;;;28.90;63.20;;;;;;5203415;23;20094;-80
2023/06/29 14:46:22;;;;;;;5.97;3.72;;;32.70;62.80;;;;;;5127196;23;20045;-82
2023/06/29 14:49:37;;;;;;;6.90;2.92;;;35.00;58.80;;;;;;4884830;29;20139;-82
2023/06/29 15:13:13;;;;;;;4.55;2.50;;;29.70;61.90;;;;;;4956869;23;20056;-82
2023/06/29 15:23:11;;;;;;;5.78;3.17;;;34.60;53.20;;;;;;4897317;23;20041;-81
2023/06/29 15:30:02;;;;;;;57.00;48.28;;;30.20;61.00;;;;;;4879004;29;20045;-80
2023/06/29 15:37:10;;;;;;;31.83;23.20;;;31.70;61.60;;;;;;4863154;29;20037;-78
2023/06/29 15:47:52;;;;;;;14.27;10.30;;;36.50;54.00;;;;;;5277178;23;20041;-77
2023/06/29 15:50:20;;;;;;;14.25;7.90;;;36.90;52.00;;;;;;4873833;29;20049;-74
2023/06/29 15:52:48;;;;;;;16.20;6.05;;;37.40;51.60;;;;;;4877971;29;20148;-78
2023/06/29 15:55:21;;;;;;;7.70;2.83;;;37.90;51.20;;;;;;4879096;29;20493;-76
2023/06/29 15:57:52;;;;;;;6.60;3.80;;;37.60;49.80;;;;;;4877897;29;20087;-76
2023/06/29 16:00:22;;;;;;;8.52;4.00;;;37.30;51.50;;;;;;4860145;29;20060;-75
2023/06/29 16:02:54;;;;;;;13.43;5.57;;;37.40;51.60;;;;;;4862020;29;20061;-76
2023/06/29 16:05:26;;;;;;;8.02;3.60;;;37.50;51.10;;;;;;4857499;29;20053;-76
2023/06/29 16:07:57;;;;;;;14.38;5.38;;;37.10;50.60;;;;;;4881395;29;20105;-75
2023/06/29 16:10:28;;;;;;;7.18;2.75;;;35.80;51.20;;;;;;4864469;29;20049;-76
2023/06/29 16:12:55;;;;;;;11.40;4.32;;;35.90;51.00;;;;;;4880539;29;20614;-77
2023/06/29 16:15:23;;;;;;;11.43;4.15;;;36.50;51.60;;;;;;4881727;29;20060;-76
2023/06/29 16:17:50;;;;;;;15.18;5.75;;;35.80;51.50;;;;;;4879007;29;20040;-75
2023/06/29 16:20:18;;;;;;;11.00;3.78;;;36.10;53.00;;;;;;4852625;29;20049;-76
2023/06/29 16:22:45;;;;;;;14.55;4.35;;;36.50;52.40;;;;;;4875033;29;20267;-76
2023/06/29 16:25:13;;;;;;;7.28;3.40;;;36.90;51.50;;;;;;4857234;29;20061;-76
2023/06/29 16:27:42;;;;;;;9.55;3.80;;;35.90;51.30;;;;;;4856497;29;20045;-75
2023/06/29 16:30:15;;;;;;;11.38;6.13;;;36.00;52.30;;;;;;4865960;29;20053;-75
2023/06/29 16:32:52;;;;;;;29.23;21.70;;;35.10;52.80;;;;;;4880450;29;20097;-74
2023/06/29 16:35:50;;;;;;;10.65;7.07;;;35.10;52.30;;;;;;4862515;29;20099;-77
2023/06/29 16:38:38;;;;;;;7.68;3.17;;;35.50;52.40;;;;;;4856899;29;20073;-75
2023/06/29 16:41:20;;;;;;;6.15;2.70;;;34.50;52.80;;;;;;4855770;29;20065;-75
2023/06/29 16:43:58;;;;;;;8.75;3.00;;;34.80;52.40;;;;;;4863536;29;20155;-75
2023/06/29 16:46:44;;;;;;;4.28;2.10;;;34.70;53.20;;;;;;4860093;29;20065;-78
2023/06/29 16:49:26;;;;;;;4.90;2.30;;;31.30;54.90;;;;;;4860035;29;20049;-76
2023/06/29 16:55:33;;;;;;;9.00;6.47;;;27.90;60.00;;;;;;4850258;29;20179;-76
2023/06/29 16:58:02;;;;;;;20.33;14.57;;;27.20;61.50;;;;;;4877310;29;20052;-77
2023/06/29 17:00:30;;;;;;;30.45;25.10;;;27.30;61.60;;;;;;4879910;29;20044;-78
2023/06/29 17:02:58;;;;;;;83.82;63.13;;;27.60;61.10;;;;;;4865762;29;20052;-78
2023/06/29 17:05:26;;;;;;;10.65;8.13;;;27.80;62.60;;;;;;4877829;29;20116;-80
2023/06/29 17:07:56;;;;;;;13.88;8.18;;;27.50;61.10;;;;;;4863959;29;20049;-76
2023/06/29 17:10:23;;;;;;;10.55;5.07;;;27.50;62.70;;;;;;4875491;29;20553;-78
2023/06/29 17:12:51;;;;;;;31.33;8.70;;;27.20;63.80;;;;;;4861689;29;20081;-76
2023/06/29 17:15:19;;;;;;;14.00;6.68;;;26.90;64.00;;;;;;4868578;29;20041;-74
2023/06/29 17:17:48;;;;;;;8.60;3.83;;;26.80;63.80;;;;;;4873637;23;20057;-81
2023/06/29 17:20:32;;;;;;;10.45;4.63;;;26.50;65.20;;;;;;4894445;23;20141;-78
2023/06/29 17:23:04;;;;;;;11.60;4.38;;;26.30;66.20;;;;;;4853893;29;20076;-80
2023/06/29 17:25:52;;;;;;;7.80;3.58;;;26.20;67.20;;;;;;4874852;29;20104;-81
2023/06/29 17:28:28;;;;;;;9.90;4.60;;;25.90;67.10;;;;;;4867356;29;20047;-75
2023/06/29 17:31:09;;;;;;;6.60;3.25;;;25.80;67.90;;;;;;4850517;29;20109;-79
2023/06/29 17:33:37;;;;;;;8.95;4.22;;;25.50;68.00;;;;;;4873817;29;20044;-78
2023/06/29 17:36:21;;;;;;;7.70;3.90;;;25.50;68.80;;;;;;4865351;29;20046;-79
2023/06/29 17:38:51;;;;;;;;;;;25.50;69.20;;;;;;4888140;29;20045;-74
2023/06/29 17:41:18;;;;;;;8.90;4.05;;;25.30;68.90;;;;;;4880249;29;19993;-83
2023/06/29 17:43:45;;;;;;;16.25;4.15;;;25.20;69.30;;;;;;4880661;29;20049;-77
2023/06/29 17:46:15;;;;;;;8.10;3.80;;;25.10;69.80;;;;;;4881967;29;20056;-74
2023/06/29 17:48:46;;;;;;;7.03;3.60;;;24.90;70.10;;;;;;4883714;29;20320;-75
2023/06/29 17:51:18;;;;;;;7.30;3.70;;;24.70;70.70;;;;;;4867343;29;20045;-77
2023/06/29 17:53:50;;;;;;;6.05;3.22;;;24.50;71.50;;;;;;4865068;29;20064;-80
2023/06/29 17:56:20;;;;;;;5.22;3.45;;;24.30;72.70;;;;;;4863759;29;20140;-77
2023/06/29 17:58:48;;;;;;;6.85;3.63;;;24.10;72.70;;;;;;4863865;29;20054;-77
2023/06/29 18:01:18;;;;;;;5.30;3.17;;;24.00;72.90;;;;;;4864034;29;20041;-81
2023/06/29 18:03:46;;;;;;;5.28;3.60;;;23.90;72.80;;;;;;4832090;29;20057;-75
2023/06/29 18:06:18;;;;;;;9.93;3.97;;;23.90;72.50;;;;;;4862454;29;20050;-76
2023/06/29 18:08:50;;;;;;;6.80;3.55;;;23.90;72.70;;;;;;4865729;29;20053;-80
2023/06/29 18:11:18;;;;;;;6.75;4.10;;;23.80;73.50;;;;;;4852476;29;20041;-81
2023/06/29 18:13:46;;;;;;;10.85;4.15;;;23.70;73.30;;;;;;4855840;29;20081;-80
2023/06/29 18:16:17;;;;;;;7.85;4.20;;;23.60;73.50;;;;;;4831576;29;20061;-78
2023/06/29 18:18:47;;;;;;;7.05;4.43;;;23.40;73.40;;;;;;4847126;29;20053;-76
2023/06/29 18:21:14;;;;;;;8.40;4.13;;;23.20;73.70;;;;;;4845325;29;20114;-78
2023/06/29 18:23:41;;;;;;;7.43;4.18;;;23.20;73.20;;;;;;4863521;29;20037;-77
2023/06/29 18:26:09;;;;;;;5.60;4.00;;;23.10;74.60;;;;;;4847798;29;20049;-76
2023/06/29 18:28:38;;;;;;;6.88;3.92;;;23.20;74.80;;;;;;4853183;29;20329;-75
2023/06/29 18:31:08;;;;;;;7.65;5.10;;;23.20;75.30;;;;;;4859611;29;20073;-77
2023/06/29 18:33:35;;;;;;;7.43;4.50;;;23.30;74.70;;;;;;4861738;29;20303;-78
2023/06/29 18:36:03;;;;;;;6.47;3.53;;;23.20;75.30;;;;;;4863494;29;20137;-74
2023/06/29 18:38:30;;;;;;;5.63;3.63;;;23.30;74.80;;;;;;4852543;29;20461;-75
2023/06/29 18:41:01;;;;;;;6.03;4.00;;;23.10;75.30;;;;;;4829437;29;20101;-74
2023/06/29 18:43:31;;;;;;;6.75;3.80;;;23.10;75.00;;;;;;4857070;29;20037;-79
2023/06/29 18:46:09;;;;;;;6.07;3.85;;;23.10;75.50;;;;;;4849044;29;20129;-77
2023/06/29 18:48:37;;;;;;;11.38;4.38;;;23.10;75.80;;;;;;4853064;29;20108;-76
2023/06/29 18:51:13;;;;;;;10.95;4.40;;;22.70;76.40;;;;;;4867201;29;20049;-79
2023/06/29 18:54:12;;;;;;;11.63;4.10;;;22.60;77.70;;;;;;4875254;29;20057;-84
2023/06/29 18:56:56;;;;;;;9.70;3.97;;;22.40;78.20;;;;;;4842116;29;20073;-78
2023/06/29 18:59:27;;;;;;;6.45;4.10;;;22.50;78.00;;;;;;4849205;29;20042;-79
2023/06/29 19:02:29;;;;;;;7.13;4.10;;;22.70;77.70;;;;;;4847866;29;20053;-78
2023/06/29 19:05:15;;;;;;;7.18;4.20;;;22.90;77.50;;;;;;4868077;29;20046;-77
2023/06/29 19:07:58;;;;;;;9.13;4.63;;;22.70;77.60;;;;;;4893111;23;20052;-76
2023/06/29 19:10:28;;;;;;;8.32;4.80;;;22.60;77.90;;;;;;4892118;29;20497;-80
2023/06/29 19:12:58;;;;;;;6.32;3.85;;;22.50;78.20;;;;;;4898062;29;20040;-77
2023/06/29 19:15:55;;;;;;;;;;;;;;;;;;;;;
2023/06/29 19:19:06;;;;;;;8.43;4.30;;;22.20;78.60;;;;;;4893934;29;20048;-76
2023/06/29 19:21:39;;;;;;;12.85;9.60;;;22.10;79.40;;;;;;4902053;29;20096;-80
2023/06/29 19:24:36;;;;;;;32.38;21.25;;;22.10;79.80;;;;;;4900190;29;20040;-77
2023/06/29 19:27:47;;;;;;;7.72;5.75;;;22.00;79.90;;;;;;4889509;29;20063;-77
2023/06/29 19:30:27;;;;;;;6.20;4.17;;;22.00;79.90;;;;;;4885947;29;20072;-77
2023/06/29 19:33:49;;;;;;;12.07;6.43;;;21.90;80.40;;;;;;4862067;23;20057;-76
2023/06/29 19:40:00;;;;;;;25.63;17.55;;;21.90;80.40;;;;;;4846029;29;20073;-79
2023/06/29 19:42:52;;;;;;;9.70;5.55;;;21.90;80.00;;;;;;4868972;29;20086;-79
2023/06/29 19:45:31;;;;;;;6.28;4.30;;;21.90;80.10;;;;;;4861067;29;20389;-77
2023/06/29 19:48:02;;;;;;;9.55;4.57;;;22.00;80.50;;;;;;4869753;29;20146;-76
2023/06/29 19:50:33;;;;;;;5.88;3.95;;;21.90;80.00;;;;;;4859696;29;20580;-76
2023/06/29 19:53:07;;;;;;;7.20;4.10;;;22.00;79.70;;;;;;4860960;29;20464;-75
2023/06/29 19:55:57;;;;;;;;;;;;;;;;;;;;;
2023/06/29 19:59:18;;;;;;;6.05;4.22;;;21.90;80.20;;;;;;4856192;29;20093;-77
2023/06/29 20:01:50;;;;;;;5.88;4.07;;;21.90;80.20;;;;;;4862327;29;20045;-77
2023/06/29 20:04:29;;;;;;;8.57;4.47;;;21.90;80.30;;;;;;4854775;29;20094;-76
2023/06/29 20:07:09;;;;;;;7.68;4.47;;;21.90;80.40;;;;;;4859256;29;20118;-77
2023/06/29 20:09:39;;;;;;;6.55;4.38;;;21.80;81.10;;;;;;4856623;29;20050;-77
2023/06/29 20:12:07;;;;;;;7.55;4.80;;;21.70;81.60;;;;;;4851635;29;20060;-77
2023/06/29 20:14:34;;;;;;;6.57;4.28;;;21.70;81.10;;;;;;4866503;29;20061;-76
2023/06/29 20:17:02;;;;;;;6.03;4.30;;;21.70;81.40;;;;;;4868733;29;20056;-76
2023/06/29 20:19:30;;;;;;;6.03;4.38;;;21.70;81.50;;;;;;4848247;29;20085;-76
2023/06/29 20:22:01;;;;;;;6.03;4.40;;;21.70;81.70;;;;;;4862455;29;20178;-79
2023/06/29 20:25:51;;;;;;;7.10;4.22;;;21.70;82.20;;;;;;4849452;29;20052;-76
2023/06/29 20:31:50;;;;;;;7.40;4.18;;;21.60;84.70;;;;;;4998557;23;20041;-82
2023/06/29 20:34:57;;;;;;;7.30;4.35;;;21.70;84.60;;;;;;5113397;23;20072;-79
2023/06/29 20:37:38;;;;;;;7.03;4.50;;;21.80;84.20;;;;;;4886561;29;20041;-82
2023/06/29 20:52:39;;;;;;;10.32;5.30;;;21.50;87.30;;;;;;5120984;23;20080;-80
2023/06/29 20:55:21;;;;;;;7.32;4.78;;;21.40;87.40;;;;;;4878342;29;20049;-79
2023/06/29 21:01:32;;;;;;;11.00;5.20;;;21.20;89.50;;;;;;5122222;23;20572;-79
2023/06/29 21:04:03;;;;;;;6.68;4.50;;;20.90;90.10;;;;;;4884098;29;20033;-81
2023/06/29 21:07:10;;;;;;;10.95;4.82;;;21.00;90.00;;;;;;4872877;29;20140;-80
2023/06/29 21:18:48;;;;;;;10.30;6.00;;;21.10;90.20;;;;;;4889276;29;20044;-82
2023/06/29 21:22:19;;;;;;;10.00;5.65;;;21.30;89.90;;;;;;4871124;29;20049;-81
2023/06/29 21:46:22;;;;;;;8.77;5.80;;;20.80;92.50;;;;;;4850744;29;20049;-79
2023/06/29 21:49:22;;;;;;;9.35;5.72;;;20.30;93.00;;;;;;5093002;23;20061;-80
2023/06/29 21:53:23;;;;;;;56.85;36.95;;;20.20;93.90;;;;;;4896975;29;20055;-83
2023/06/29 22:11:37;;;;;;;13.07;7.63;;;20.20;95.90;;;;;;4869596;29;20064;-78
2023/06/29 22:14:17;;;;;;;13.50;7.68;;;20.40;96.20;;;;;;4901865;23;20076;-81
2023/06/29 22:20:34;;;;;;;10.35;5.93;;;20.30;96.60;;;;;;5207805;23;19931;-78
2023/06/29 22:31:42;;;;;;;11.90;6.30;;;19.90;98.30;;;;;;4942547;23;20057;-79
2023/06/29 22:39:07;;;;;;;8.23;5.85;;;19.90;99.00;;;;;;4881493;29;20056;-79
2023/06/29 22:53:11;;;;;;;7.97;5.63;;;19.90;99.90;;;;;;4964244;23;20049;-78
2023/06/29 23:00:22;;;;;;;7.18;5.38;;;19.80;99.90;;;;;;4882098;29;20045;-80
2023/06/29 23:02:51;;;;;;;8.63;6.00;;;19.70;99.90;;;;;;4879039;29;20064;-82
2023/06/29 23:06:22;;;;;;;12.40;8.52;;;19.60;99.90;;;;;;5187479;23;20398;-79
2023/06/29 23:30:23;;;;;;;16.85;6.50;;;19.30;99.90;;;;;;4884972;29;20045;-78
2023/06/29 23:34:23;;;;;;;21.83;7.55;;;19.20;99.90;;;;;;4880239;29;20100;-76
2023/06/29 23:44:55;;;;;;;11.68;7.25;;;19.10;99.90;;;;;;5030692;23;20077;-78
2023/06/29 23:50:54;;;;;;;9.75;6.28;;;19.00;99.90;;;;;;4517938;23;20060;-79
2023/06/29 23:53:30;;;;;;;12.73;7.28;;;18.90;99.90;;;;;;5039770;23;20045;-80
